sensor_id;sensor_type;location;lat;lon;timestamp;P1;durP1;ratioP1;P2;durP2;ratioP2
10114;SDS011;74399;43.260;27.812;2023-12-20T00:01:06;17.10;;;9.27;;
10114;SDS011;74399;43.260;27.812;2023-12-20T00:03:50;11.70;;;8.10;;
10114;SDS011;74399;43.260;27.812;2023-12-20T00:06:34;12.73;;;7.60;;
10114;SDS011;74399;43.260;27.812;2023-12-20T00:09:19;8.32;;;5.65;;
10114;SDS011;74399;43.260;27.812;2023-12-20T00:12:05;12.18;;;7.18;;
10114;SDS011;74399;43.260;27.812;2023-12-20T00:14:49;9.23;;;5.97;;
10114;SDS011;74399;43.260;27.812;2023-12-20T00:17:33;8.77;;;6.15;;
10114;SDS011;74399;43.260;27.812;2023-12-20T00:20:18;20.48;;;7.85;;
10114;SDS011;74399;43.260;27.812;2023-12-20T00:23:02;10.60;;;6.55;;
10114;SDS011;74399;43.260;27.812;2023-12-20T00:25:47;11.77;;;6.57;;
10114;SDS011;74399;43.260;27.812;2023-12-20T00:28:32;10.70;;;6.03;;
10114;SDS011;74399;43.260;27.812;2023-12-20T00:31:17;10.30;;;6.85;;
10114;SDS011;74399;43.260;27.812;2023-12-20T00:34:01;10.00;;;5.82;;
10114;SDS011;74399;43.260;27.812;2023-12-20T00:36:46;21.83;;;13.33;;
10114;SDS011;74399;43.260;27.812;2023-12-20T00:39:30;8.45;;;5.30;;
10114;SDS011;74399;43.260;27.812;2023-12-20T00:42:15;7.85;;;4.68;;
10114;SDS011;74399;43.260;27.812;2023-12-20T00:47:46;8.02;;;4.63;;
10114;SDS011;74399;43.260;27.812;2023-12-20T00:50:31;9.60;;;5.60;;
10114;SDS011;74399;43.260;27.812;2023-12-20T00:53:15;9.60;;;5.70;;
10114;SDS011;74399;43.260;27.812;2023-12-20T00:56:00;7.63;;;4.35;;
10114;SDS011;74399;43.260;27.812;2023-12-20T00:58:43;7.72;;;4.32;;
10114;SDS011;74399;43.260;27.812;2023-12-20T01:01:29;6.53;;;4.22;;
10114;SDS011;74399;43.260;27.812;2023-12-20T01:04:15;12.65;;;5.15;;
10114;SDS011;74399;43.260;27.812;2023-12-20T01:07:00;8.35;;;4.82;;
10114;SDS011;74399;43.260;27.812;2023-12-20T01:09:45;6.70;;;4.78;;
10114;SDS011;74399;43.260;27.812;2023-12-20T01:12:29;8.00;;;4.30;;
10114;SDS011;74399;43.260;27.812;2023-12-20T01:15:13;8.63;;;4.43;;
10114;SDS011;74399;43.260;27.812;2023-12-20T01:17:59;6.85;;;4.22;;
10114;SDS011;74399;43.260;27.812;2023-12-20T01:20:44;6.82;;;4.47;;
10114;SDS011;74399;43.260;27.812;2023-12-20T01:23:27;11.98;;;3.97;;
10114;SDS011;74399;43.260;27.812;2023-12-20T01:26:12;10.00;;;4.38;;
10114;SDS011;74399;43.260;27.812;2023-12-20T01:28:56;4.65;;;3.03;;
10114;SDS011;74399;43.260;27.812;2023-12-20T01:31:40;5.13;;;2.88;;
10114;SDS011;74399;43.260;27.812;2023-12-20T01:34:26;4.07;;;2.53;;
10114;SDS011;74399;43.260;27.812;2023-12-20T01:37:10;5.95;;;2.58;;
10114;SDS011;74399;43.260;27.812;2023-12-20T01:39:56;7.97;;;3.70;;
10114;SDS011;74399;43.260;27.812;2023-12-20T01:42:41;4.38;;;3.15;;
10114;SDS011;74399;43.260;27.812;2023-12-20T01:45:25;5.10;;;2.88;;
10114;SDS011;74399;43.260;27.812;2023-12-20T01:48:10;6.57;;;3.35;;
10114;SDS011;74399;43.260;27.812;2023-12-20T01:50:56;5.40;;;2.90;;
10114;SDS011;74399;43.260;27.812;2023-12-20T01:53:40;5.70;;;3.30;;
10114;SDS011;74399;43.260;27.812;2023-12-20T01:56:25;4.47;;;2.72;;
10114;SDS011;74399;43.260;27.812;2023-12-20T01:59:12;4.95;;;2.85;;
10114;SDS011;74399;43.260;27.812;2023-12-20T02:01:56;5.07;;;2.65;;
10114;SDS011;74399;43.260;27.812;2023-12-20T02:04:41;6.53;;;2.60;;
10114;SDS011;74399;43.260;27.812;2023-12-20T02:07:27;3.88;;;2.22;;
10114;SDS011;74399;43.260;27.812;2023-12-20T02:10:13;10.27;;;3.85;;
10114;SDS011;74399;43.260;27.812;2023-12-20T02:12:57;3.63;;;2.83;;
10114;SDS011;74399;43.260;27.812;2023-12-20T02:15:42;9.02;;;4.30;;
10114;SDS011;74399;43.260;27.812;2023-12-20T02:18:26;5.13;;;2.47;;
10114;SDS011;74399;43.260;27.812;2023-12-20T02:21:10;7.75;;;3.17;;
10114;SDS011;74399;43.260;27.812;2023-12-20T02:23:56;4.63;;;3.13;;
10114;SDS011;74399;43.260;27.812;2023-12-20T02:26:40;2.83;;;2.03;;
10114;SDS011;74399;43.260;27.812;2023-12-20T02:29:28;5.85;;;2.75;;
10114;SDS011;74399;43.260;27.812;2023-12-20T02:32:12;5.22;;;2.28;;
10114;SDS011;74399;43.260;27.812;2023-12-20T02:34:57;4.25;;;2.47;;
10114;SDS011;74399;43.260;27.812;2023-12-20T02:37:42;6.78;;;2.20;;
10114;SDS011;74399;43.260;27.812;2023-12-20T02:40:28;6.53;;;2.97;;
10114;SDS011;74399;43.260;27.812;2023-12-20T02:43:12;5.30;;;2.78;;
10114;SDS011;74399;43.260;27.812;2023-12-20T02:45:57;5.10;;;2.53;;
10114;SDS011;74399;43.260;27.812;2023-12-20T02:48:41;6.88;;;3.38;;
10114;SDS011;74399;43.260;27.812;2023-12-20T02:51:25;6.45;;;3.35;;
10114;SDS011;74399;43.260;27.812;2023-12-20T02:54:09;6.53;;;3.28;;
10114;SDS011;74399;43.260;27.812;2023-12-20T02:56:55;4.72;;;3.10;;
10114;SDS011;74399;43.260;27.812;2023-12-20T02:59:39;6.07;;;3.97;;
10114;SDS011;74399;43.260;27.812;2023-12-20T03:02:24;3.77;;;3.00;;
10114;SDS011;74399;43.260;27.812;2023-12-20T03:05:08;4.68;;;3.47;;
10114;SDS011;74399;43.260;27.812;2023-12-20T03:07:52;7.35;;;3.42;;
10114;SDS011;74399;43.260;27.812;2023-12-20T03:10:36;5.60;;;3.63;;
10114;SDS011;74399;43.260;27.812;2023-12-20T03:13:22;4.50;;;2.72;;
10114;SDS011;74399;43.260;27.812;2023-12-20T03:16:08;6.20;;;3.70;;
10114;SDS011;74399;43.260;27.812;2023-12-20T03:18:52;4.80;;;3.20;;
10114;SDS011;74399;43.260;27.812;2023-12-20T03:21:36;9.77;;;4.03;;
10114;SDS011;74399;43.260;27.812;2023-12-20T03:24:21;4.55;;;3.40;;
10114;SDS011;74399;43.260;27.812;2023-12-20T03:27:05;12.32;;;3.70;;
10114;SDS011;74399;43.260;27.812;2023-12-20T03:29:50;7.53;;;2.97;;
10114;SDS011;74399;43.260;27.812;2023-12-20T03:32:34;6.50;;;3.58;;
10114;SDS011;74399;43.260;27.812;2023-12-20T03:35:18;7.78;;;3.85;;
10114;SDS011;74399;43.260;27.812;2023-12-20T03:38:03;3.83;;;2.80;;
10114;SDS011;74399;43.260;27.812;2023-12-20T03:40:47;17.08;;;8.02;;
10114;SDS011;74399;43.260;27.812;2023-12-20T03:43:31;10.13;;;5.75;;
10114;SDS011;74399;43.260;27.812;2023-12-20T03:46:16;21.05;;;9.60;;
10114;SDS011;74399;43.260;27.812;2023-12-20T03:49:01;34.70;;;15.20;;
10114;SDS011;74399;43.260;27.812;2023-12-20T03:51:46;8.65;;;4.43;;
10114;SDS011;74399;43.260;27.812;2023-12-20T03:54:30;15.30;;;7.40;;
10114;SDS011;74399;43.260;27.812;2023-12-20T03:57:14;50.95;;;20.73;;
10114;SDS011;74399;43.260;27.812;2023-12-20T03:59:58;35.22;;;18.17;;
10114;SDS011;74399;43.260;27.812;2023-12-20T04:02:46;9.57;;;3.90;;
10114;SDS011;74399;43.260;27.812;2023-12-20T04:05:30;7.50;;;4.90;;
10114;SDS011;74399;43.260;27.812;2023-12-20T04:08:14;18.97;;;6.60;;
10114;SDS011;74399;43.260;27.812;2023-12-20T04:10:58;20.58;;;6.30;;
10114;SDS011;74399;43.260;27.812;2023-12-20T04:13:42;12.55;;;6.82;;
10114;SDS011;74399;43.260;27.812;2023-12-20T04:16:26;14.75;;;7.68;;
10114;SDS011;74399;43.260;27.812;2023-12-20T04:19:12;18.58;;;7.68;;
10114;SDS011;74399;43.260;27.812;2023-12-20T04:21:56;14.27;;;6.53;;
10114;SDS011;74399;43.260;27.812;2023-12-20T04:24:40;22.35;;;7.70;;
10114;SDS011;74399;43.260;27.812;2023-12-20T04:27:25;16.17;;;4.88;;
10114;SDS011;74399;43.260;27.812;2023-12-20T04:30:09;15.13;;;5.70;;
10114;SDS011;74399;43.260;27.812;2023-12-20T04:32:54;19.10;;;8.43;;
10114;SDS011;74399;43.260;27.812;2023-12-20T04:35:41;31.48;;;15.80;;
10114;SDS011;74399;43.260;27.812;2023-12-20T04:38:25;33.30;;;16.45;;
10114;SDS011;74399;43.260;27.812;2023-12-20T04:41:10;25.08;;;14.02;;
10114;SDS011;74399;43.260;27.812;2023-12-20T04:43:58;18.48;;;9.40;;
10114;SDS011;74399;43.260;27.812;2023-12-20T04:46:43;18.13;;;10.38;;
10114;SDS011;74399;43.260;27.812;2023-12-20T04:49:27;17.50;;;10.30;;
10114;SDS011;74399;43.260;27.812;2023-12-20T04:52:12;14.30;;;7.33;;
10114;SDS011;74399;43.260;27.812;2023-12-20T04:54:58;10.63;;;6.00;;
10114;SDS011;74399;43.260;27.812;2023-12-20T04:57:43;16.42;;;9.27;;
10114;SDS011;74399;43.260;27.812;2023-12-20T05:00:28;22.75;;;11.82;;
10114;SDS011;74399;43.260;27.812;2023-12-20T05:03:12;16.48;;;7.20;;
10114;SDS011;74399;43.260;27.812;2023-12-20T05:05:57;34.20;;;17.30;;
10114;SDS011;74399;43.260;27.812;2023-12-20T05:08:42;56.60;;;23.17;;
10114;SDS011;74399;43.260;27.812;2023-12-20T05:11:27;88.65;;;35.35;;
10114;SDS011;74399;43.260;27.812;2023-12-20T05:14:13;44.58;;;21.02;;
10114;SDS011;74399;43.260;27.812;2023-12-20T05:16:57;32.58;;;14.95;;
10114;SDS011;74399;43.260;27.812;2023-12-20T05:19:41;18.48;;;9.75;;
10114;SDS011;74399;43.260;27.812;2023-12-20T05:22:26;36.53;;;12.87;;
10114;SDS011;74399;43.260;27.812;2023-12-20T05:25:12;23.88;;;11.82;;
10114;SDS011;74399;43.260;27.812;2023-12-20T05:27:56;11.35;;;6.68;;
10114;SDS011;74399;43.260;27.812;2023-12-20T05:30:40;16.90;;;8.13;;
10114;SDS011;74399;43.260;27.812;2023-12-20T05:33:25;39.20;;;19.73;;
10114;SDS011;74399;43.260;27.812;2023-12-20T05:36:09;54.70;;;26.45;;
10114;SDS011;74399;43.260;27.812;2023-12-20T05:38:55;62.28;;;32.20;;
10114;SDS011;74399;43.260;27.812;2023-12-20T05:41:41;37.97;;;21.85;;
10114;SDS011;74399;43.260;27.812;2023-12-20T05:44:25;17.40;;;12.32;;
10114;SDS011;74399;43.260;27.812;2023-12-20T05:47:10;13.90;;;9.53;;
10114;SDS011;74399;43.260;27.812;2023-12-20T05:49:54;50.20;;;25.13;;
10114;SDS011;74399;43.260;27.812;2023-12-20T05:52:38;43.95;;;20.83;;
10114;SDS011;74399;43.260;27.812;2023-12-20T05:55:22;34.38;;;17.58;;
10114;SDS011;74399;43.260;27.812;2023-12-20T05:58:08;18.90;;;10.87;;
10114;SDS011;74399;43.260;27.812;2023-12-20T06:00:52;17.98;;;11.02;;
10114;SDS011;74399;43.260;27.812;2023-12-20T06:03:36;37.58;;;17.52;;
10114;SDS011;74399;43.260;27.812;2023-12-20T06:06:25;42.10;;;25.83;;
10114;SDS011;74399;43.260;27.812;2023-12-20T06:09:10;18.70;;;10.10;;
10114;SDS011;74399;43.260;27.812;2023-12-20T06:11:54;31.23;;;19.65;;
10114;SDS011;74399;43.260;27.812;2023-12-20T06:14:40;28.05;;;17.00;;
10114;SDS011;74399;43.260;27.812;2023-12-20T06:17:24;20.98;;;14.23;;
10114;SDS011;74399;43.260;27.812;2023-12-20T06:20:09;24.63;;;10.98;;
10114;SDS011;74399;43.260;27.812;2023-12-20T06:22:54;27.30;;;12.95;;
10114;SDS011;74399;43.260;27.812;2023-12-20T06:25:38;24.20;;;14.35;;
10114;SDS011;74399;43.260;27.812;2023-12-20T06:28:22;29.88;;;16.15;;
10114;SDS011;74399;43.260;27.812;2023-12-20T06:31:08;26.42;;;13.57;;
10114;SDS011;74399;43.260;27.812;2023-12-20T06:33:52;22.38;;;12.82;;
10114;SDS011;74399;43.260;27.812;2023-12-20T06:36:40;18.02;;;9.55;;
10114;SDS011;74399;43.260;27.812;2023-12-20T06:39:24;22.05;;;11.07;;
10114;SDS011;74399;43.260;27.812;2023-12-20T06:42:09;24.95;;;10.68;;
10114;SDS011;74399;43.260;27.812;2023-12-20T06:44:53;20.25;;;13.38;;
10114;SDS011;74399;43.260;27.812;2023-12-20T06:47:38;26.42;;;14.98;;
10114;SDS011;74399;43.260;27.812;2023-12-20T06:50:22;17.35;;;9.63;;
10114;SDS011;74399;43.260;27.812;2023-12-20T06:53:07;18.17;;;9.17;;
10114;SDS011;74399;43.260;27.812;2023-12-20T06:55:51;39.03;;;20.00;;
10114;SDS011;74399;43.260;27.812;2023-12-20T06:58:35;189.00;;;78.60;;
10114;SDS011;74399;43.260;27.812;2023-12-20T07:01:20;44.35;;;22.48;;
10114;SDS011;74399;43.260;27.812;2023-12-20T07:06:53;31.35;;;17.55;;
10114;SDS011;74399;43.260;27.812;2023-12-20T07:09:40;25.20;;;16.13;;
10114;SDS011;74399;43.260;27.812;2023-12-20T07:12:25;20.80;;;14.25;;
10114;SDS011;74399;43.260;27.812;2023-12-20T07:15:10;24.48;;;14.15;;
10114;SDS011;74399;43.260;27.812;2023-12-20T07:17:55;25.58;;;15.38;;
10114;SDS011;74399;43.260;27.812;2023-12-20T07:20:41;23.17;;;15.33;;
10114;SDS011;74399;43.260;27.812;2023-12-20T07:23:25;28.10;;;14.57;;
10114;SDS011;74399;43.260;27.812;2023-12-20T07:26:09;24.38;;;14.18;;
10114;SDS011;74399;43.260;27.812;2023-12-20T07:28:54;28.10;;;13.65;;
10114;SDS011;74399;43.260;27.812;2023-12-20T07:31:38;22.65;;;14.45;;
10114;SDS011;74399;43.260;27.812;2023-12-20T07:34:22;17.50;;;12.23;;
10114;SDS011;74399;43.260;27.812;2023-12-20T07:37:08;19.45;;;10.52;;
10114;SDS011;74399;43.260;27.812;2023-12-20T07:39:54;15.82;;;8.88;;
10114;SDS011;74399;43.260;27.812;2023-12-20T07:42:38;18.42;;;10.15;;
10114;SDS011;74399;43.260;27.812;2023-12-20T07:45:22;21.10;;;9.20;;
10114;SDS011;74399;43.260;27.812;2023-12-20T07:48:07;19.23;;;10.17;;
10114;SDS011;74399;43.260;27.812;2023-12-20T07:50:51;30.27;;;11.60;;
10114;SDS011;74399;43.260;27.812;2023-12-20T07:53:37;24.83;;;11.25;;
10114;SDS011;74399;43.260;27.812;2023-12-20T07:56:21;23.27;;;9.90;;
10114;SDS011;74399;43.260;27.812;2023-12-20T07:59:05;21.30;;;9.73;;
10114;SDS011;74399;43.260;27.812;2023-12-20T08:02:03;18.88;;;10.25;;
10114;SDS011;74399;43.260;27.812;2023-12-20T08:04:47;25.30;;;12.05;;
10114;SDS011;74399;43.260;27.812;2023-12-20T08:07:32;18.83;;;10.27;;
10114;SDS011;74399;43.260;27.812;2023-12-20T08:10:18;12.07;;;7.43;;
10114;SDS011;74399;43.260;27.812;2023-12-20T08:13:02;16.25;;;7.60;;
10114;SDS011;74399;43.260;27.812;2023-12-20T08:15:47;17.80;;;8.63;;
10114;SDS011;74399;43.260;27.812;2023-12-20T08:18:31;23.40;;;14.63;;
10114;SDS011;74399;43.260;27.812;2023-12-20T08:21:16;42.53;;;9.57;;
10114;SDS011;74399;43.260;27.812;2023-12-20T08:24:02;17.08;;;8.10;;
10114;SDS011;74399;43.260;27.812;2023-12-20T08:26:48;18.08;;;8.65;;
10114;SDS011;74399;43.260;27.812;2023-12-20T08:29:33;16.30;;;6.38;;
10114;SDS011;74399;43.260;27.812;2023-12-20T08:32:17;14.73;;;7.50;;
10114;SDS011;74399;43.260;27.812;2023-12-20T08:35:01;19.55;;;8.70;;
10114;SDS011;74399;43.260;27.812;2023-12-20T08:37:46;26.77;;;7.32;;
10114;SDS011;74399;43.260;27.812;2023-12-20T08:40:30;10.20;;;6.63;;
10114;SDS011;74399;43.260;27.812;2023-12-20T08:43:16;15.80;;;6.47;;
10114;SDS011;74399;43.260;27.812;2023-12-20T08:46:01;15.70;;;6.13;;
10114;SDS011;74399;43.260;27.812;2023-12-20T08:48:46;12.10;;;6.05;;
10114;SDS011;74399;43.260;27.812;2023-12-20T08:51:31;18.38;;;7.03;;
10114;SDS011;74399;43.260;27.812;2023-12-20T08:54:16;11.50;;;5.95;;
10114;SDS011;74399;43.260;27.812;2023-12-20T08:57:01;21.00;;;6.80;;
10114;SDS011;74399;43.260;27.812;2023-12-20T08:59:49;12.93;;;7.32;;
10114;SDS011;74399;43.260;27.812;2023-12-20T09:02:34;14.35;;;6.90;;
10114;SDS011;74399;43.260;27.812;2023-12-20T09:05:20;11.75;;;7.32;;
10114;SDS011;74399;43.260;27.812;2023-12-20T09:08:05;30.95;;;8.48;;
10114;SDS011;74399;43.260;27.812;2023-12-20T09:10:50;19.42;;;4.97;;
10114;SDS011;74399;43.260;27.812;2023-12-20T09:13:36;20.33;;;6.28;;
10114;SDS011;74399;43.260;27.812;2023-12-20T09:16:22;12.23;;;4.57;;
10114;SDS011;74399;43.260;27.812;2023-12-20T09:19:06;9.93;;;5.50;;
10114;SDS011;74399;43.260;27.812;2023-12-20T09:21:51;11.65;;;6.80;;
10114;SDS011;74399;43.260;27.812;2023-12-20T09:24:35;8.33;;;4.90;;
10114;SDS011;74399;43.260;27.812;2023-12-20T09:30:04;13.77;;;5.65;;
10114;SDS011;74399;43.260;27.812;2023-12-20T09:35:34;6.90;;;4.05;;
10114;SDS011;74399;43.260;27.812;2023-12-20T09:38:19;10.85;;;3.88;;
10114;SDS011;74399;43.260;27.812;2023-12-20T09:43:48;9.15;;;3.88;;
10114;SDS011;74399;43.260;27.812;2023-12-20T09:46:35;6.88;;;3.80;;
10114;SDS011;74399;43.260;27.812;2023-12-20T09:49:27;12.15;;;4.07;;
10114;SDS011;74399;43.260;27.812;2023-12-20T09:52:11;7.95;;;3.28;;
10114;SDS011;74399;43.260;27.812;2023-12-20T09:54:57;10.63;;;4.38;;
10114;SDS011;74399;43.260;27.812;2023-12-20T09:57:42;5.13;;;3.20;;
10114;SDS011;74399;43.260;27.812;2023-12-20T10:00:27;4.22;;;2.65;;
10114;SDS011;74399;43.260;27.812;2023-12-20T10:03:11;6.78;;;3.53;;
10114;SDS011;74399;43.260;27.812;2023-12-20T10:06:00;17.25;;;3.92;;
10114;SDS011;74399;43.260;27.812;2023-12-20T10:08:44;25.75;;;4.85;;
10114;SDS011;74399;43.260;27.812;2023-12-20T10:11:28;12.73;;;3.35;;
10114;SDS011;74399;43.260;27.812;2023-12-20T10:14:13;8.77;;;4.32;;
10114;SDS011;74399;43.260;27.812;2023-12-20T10:17:01;9.67;;;4.10;;
10114;SDS011;74399;43.260;27.812;2023-12-20T10:19:46;4.35;;;2.75;;
10114;SDS011;74399;43.260;27.812;2023-12-20T10:22:32;21.17;;;4.00;;
10114;SDS011;74399;43.260;27.812;2023-12-20T10:25:16;13.73;;;3.47;;
10114;SDS011;74399;43.260;27.812;2023-12-20T10:28:11;24.48;;;4.97;;
10114;SDS011;74399;43.260;27.812;2023-12-20T10:30:56;5.45;;;3.22;;
10114;SDS011;74399;43.260;27.812;2023-12-20T10:33:41;15.98;;;4.45;;
10114;SDS011;74399;43.260;27.812;2023-12-20T10:36:25;11.27;;;4.68;;
10114;SDS011;74399;43.260;27.812;2023-12-20T10:39:12;12.60;;;5.65;;
10114;SDS011;74399;43.260;27.812;2023-12-20T10:41:59;26.48;;;7.25;;
10114;SDS011;74399;43.260;27.812;2023-12-20T10:44:43;20.27;;;8.32;;
10114;SDS011;74399;43.260;27.812;2023-12-20T10:47:27;19.75;;;8.60;;
10114;SDS011;74399;43.260;27.812;2023-12-20T10:50:14;23.15;;;8.10;;
10114;SDS011;74399;43.260;27.812;2023-12-20T10:55:44;24.75;;;8.18;;
10114;SDS011;74399;43.260;27.812;2023-12-20T10:58:30;41.08;;;12.90;;
10114;SDS011;74399;43.260;27.812;2023-12-20T11:01:17;18.02;;;8.55;;
10114;SDS011;74399;43.260;27.812;2023-12-20T11:04:02;17.80;;;7.75;;
10114;SDS011;74399;43.260;27.812;2023-12-20T11:06:54;20.77;;;8.73;;
10114;SDS011;74399;43.260;27.812;2023-12-20T11:09:46;21.52;;;7.15;;
10114;SDS011;74399;43.260;27.812;2023-12-20T11:12:39;13.15;;;6.03;;
10114;SDS011;74399;43.260;27.812;2023-12-20T11:15:28;28.23;;;7.45;;
10114;SDS011;74399;43.260;27.812;2023-12-20T11:18:13;24.38;;;8.05;;
10114;SDS011;74399;43.260;27.812;2023-12-20T11:21:00;8.38;;;4.55;;
10114;SDS011;74399;43.260;27.812;2023-12-20T11:23:46;13.05;;;4.75;;
10114;SDS011;74399;43.260;27.812;2023-12-20T11:26:30;28.92;;;6.50;;
10114;SDS011;74399;43.260;27.812;2023-12-20T11:29:32;21.87;;;6.03;;
10114;SDS011;74399;43.260;27.812;2023-12-20T11:32:27;17.20;;;5.18;;
10114;SDS011;74399;43.260;27.812;2023-12-20T11:35:18;14.85;;;5.97;;
10114;SDS011;74399;43.260;27.812;2023-12-20T11:38:04;18.98;;;7.43;;
10114;SDS011;74399;43.260;27.812;2023-12-20T11:40:48;25.55;;;9.18;;
10114;SDS011;74399;43.260;27.812;2023-12-20T11:46:20;15.57;;;6.18;;
10114;SDS011;74399;43.260;27.812;2023-12-20T11:49:04;14.68;;;6.05;;
10114;SDS011;74399;43.260;27.812;2023-12-20T11:51:48;11.00;;;6.07;;
10114;SDS011;74399;43.260;27.812;2023-12-20T11:54:33;19.42;;;6.88;;
10114;SDS011;74399;43.260;27.812;2023-12-20T11:57:17;13.68;;;4.70;;
10114;SDS011;74399;43.260;27.812;2023-12-20T12:00:02;12.30;;;3.83;;
10114;SDS011;74399;43.260;27.812;2023-12-20T12:02:58;9.40;;;4.70;;
10114;SDS011;74399;43.260;27.812;2023-12-20T12:05:46;11.13;;;5.07;;
10114;SDS011;74399;43.260;27.812;2023-12-20T12:08:31;6.15;;;4.25;;
10114;SDS011;74399;43.260;27.812;2023-12-20T12:11:16;9.57;;;5.28;;
10114;SDS011;74399;43.260;27.812;2023-12-20T12:14:00;14.23;;;4.75;;
10114;SDS011;74399;43.260;27.812;2023-12-20T12:16:45;11.45;;;4.28;;
10114;SDS011;74399;43.260;27.812;2023-12-20T12:19:30;9.55;;;4.97;;
10114;SDS011;74399;43.260;27.812;2023-12-20T12:22:18;13.15;;;5.15;;
10114;SDS011;74399;43.260;27.812;2023-12-20T12:25:10;8.13;;;4.05;;
10114;SDS011;74399;43.260;27.812;2023-12-20T12:27:55;10.25;;;4.82;;
10114;SDS011;74399;43.260;27.812;2023-12-20T12:30:39;11.15;;;5.20;;
10114;SDS011;74399;43.260;27.812;2023-12-20T12:33:35;12.75;;;5.75;;
10114;SDS011;74399;43.260;27.812;2023-12-20T12:36:21;13.73;;;5.30;;
10114;SDS011;74399;43.260;27.812;2023-12-20T12:39:06;20.00;;;5.18;;
10114;SDS011;74399;43.260;27.812;2023-12-20T12:41:50;14.90;;;5.07;;
10114;SDS011;74399;43.260;27.812;2023-12-20T12:44:35;25.02;;;5.45;;
10114;SDS011;74399;43.260;27.812;2023-12-20T12:47:19;22.23;;;8.52;;
10114;SDS011;74399;43.260;27.812;2023-12-20T12:50:03;17.83;;;7.03;;
10114;SDS011;74399;43.260;27.812;2023-12-20T12:55:34;11.88;;;6.32;;
10114;SDS011;74399;43.260;27.812;2023-12-20T13:01:03;21.75;;;6.50;;
10114;SDS011;74399;43.260;27.812;2023-12-20T13:03:47;21.98;;;7.55;;
10114;SDS011;74399;43.260;27.812;2023-12-20T13:06:32;29.70;;;7.28;;
10114;SDS011;74399;43.260;27.812;2023-12-20T13:09:18;24.38;;;7.35;;
10114;SDS011;74399;43.260;27.812;2023-12-20T13:12:02;27.48;;;6.65;;
10114;SDS011;74399;43.260;27.812;2023-12-20T13:14:48;21.83;;;7.60;;
10114;SDS011;74399;43.260;27.812;2023-12-20T13:17:33;27.20;;;10.48;;
10114;SDS011;74399;43.260;27.812;2023-12-20T13:20:17;14.90;;;6.93;;
10114;SDS011;74399;43.260;27.812;2023-12-20T13:23:02;26.38;;;7.18;;
10114;SDS011;74399;43.260;27.812;2023-12-20T13:25:48;24.13;;;6.93;;
10114;SDS011;74399;43.260;27.812;2023-12-20T13:28:32;13.70;;;6.75;;
10114;SDS011;74399;43.260;27.812;2023-12-20T13:31:17;18.85;;;7.18;;
10114;SDS011;74399;43.260;27.812;2023-12-20T13:34:01;13.03;;;6.50;;
10114;SDS011;74399;43.260;27.812;2023-12-20T13:36:45;13.57;;;7.30;;
10114;SDS011;74399;43.260;27.812;2023-12-20T13:39:30;17.83;;;6.20;;
10114;SDS011;74399;43.260;27.812;2023-12-20T13:45:03;23.02;;;8.10;;
10114;SDS011;74399;43.260;27.812;2023-12-20T13:47:48;27.30;;;10.65;;
10114;SDS011;74399;43.260;27.812;2023-12-20T13:50:33;23.80;;;10.25;;
10114;SDS011;74399;43.260;27.812;2023-12-20T13:53:17;22.95;;;11.15;;
10114;SDS011;74399;43.260;27.812;2023-12-20T13:56:02;19.40;;;10.13;;
10114;SDS011;74399;43.260;27.812;2023-12-20T13:58:48;20.60;;;9.13;;
10114;SDS011;74399;43.260;27.812;2023-12-20T14:01:33;33.92;;;8.82;;
10114;SDS011;74399;43.260;27.812;2023-12-20T14:07:22;19.90;;;8.18;;
10114;SDS011;74399;43.260;27.812;2023-12-20T14:10:07;14.68;;;8.65;;
10114;SDS011;74399;43.260;27.812;2023-12-20T14:12:51;32.83;;;9.65;;
10114;SDS011;74399;43.260;27.812;2023-12-20T14:15:37;25.80;;;9.73;;
10114;SDS011;74399;43.260;27.812;2023-12-20T14:18:21;20.30;;;9.50;;
10114;SDS011;74399;43.260;27.812;2023-12-20T14:21:06;24.33;;;12.00;;
10114;SDS011;74399;43.260;27.812;2023-12-20T14:23:50;26.70;;;11.43;;
10114;SDS011;74399;43.260;27.812;2023-12-20T14:26:35;23.75;;;10.88;;
10114;SDS011;74399;43.260;27.812;2023-12-20T14:29:19;32.78;;;9.18;;
10114;SDS011;74399;43.260;27.812;2023-12-20T14:32:08;33.65;;;11.02;;
10114;SDS011;74399;43.260;27.812;2023-12-20T14:34:52;23.95;;;11.27;;
10114;SDS011;74399;43.260;27.812;2023-12-20T14:37:37;24.52;;;12.55;;
10114;SDS011;74399;43.260;27.812;2023-12-20T14:40:23;36.50;;;16.80;;
10114;SDS011;74399;43.260;27.812;2023-12-20T14:43:07;48.88;;;14.65;;
10114;SDS011;74399;43.260;27.812;2023-12-20T14:45:52;31.80;;;12.90;;
10114;SDS011;74399;43.260;27.812;2023-12-20T14:48:38;24.83;;;9.82;;
10114;SDS011;74399;43.260;27.812;2023-12-20T14:51:22;26.02;;;11.00;;
10114;SDS011;74399;43.260;27.812;2023-12-20T14:54:07;51.03;;;24.30;;
10114;SDS011;74399;43.260;27.812;2023-12-20T14:56:52;31.83;;;12.85;;
10114;SDS011;74399;43.260;27.812;2023-12-20T14:59:46;41.25;;;14.48;;
10114;SDS011;74399;43.260;27.812;2023-12-20T15:02:30;53.58;;;25.00;;
10114;SDS011;74399;43.260;27.812;2023-12-20T15:05:16;48.42;;;20.88;;
10114;SDS011;74399;43.260;27.812;2023-12-20T15:08:00;47.05;;;12.70;;
10114;SDS011;74399;43.260;27.812;2023-12-20T15:10:45;42.45;;;12.88;;
10114;SDS011;74399;43.260;27.812;2023-12-20T15:13:29;37.67;;;14.27;;
10114;SDS011;74399;43.260;27.812;2023-12-20T15:16:15;39.45;;;15.90;;
10114;SDS011;74399;43.260;27.812;2023-12-20T15:18:59;32.80;;;13.15;;
10114;SDS011;74399;43.260;27.812;2023-12-20T15:21:45;35.93;;;16.03;;
10114;SDS011;74399;43.260;27.812;2023-12-20T15:24:29;31.80;;;14.93;;
10114;SDS011;74399;43.260;27.812;2023-12-20T15:27:20;41.08;;;20.08;;
10114;SDS011;74399;43.260;27.812;2023-12-20T15:30:07;32.55;;;14.73;;
10114;SDS011;74399;43.260;27.812;2023-12-20T15:32:52;42.40;;;14.50;;
10114;SDS011;74399;43.260;27.812;2023-12-20T15:35:37;27.13;;;12.63;;
10114;SDS011;74399;43.260;27.812;2023-12-20T15:38:23;37.03;;;12.50;;
10114;SDS011;74399;43.260;27.812;2023-12-20T15:41:07;32.33;;;12.90;;
10114;SDS011;74399;43.260;27.812;2023-12-20T15:43:51;40.35;;;15.43;;
10114;SDS011;74399;43.260;27.812;2023-12-20T15:46:37;32.78;;;14.35;;
10114;SDS011;74399;43.260;27.812;2023-12-20T15:52:06;29.33;;;14.00;;
10114;SDS011;74399;43.260;27.812;2023-12-20T15:54:52;26.00;;;12.53;;
10114;SDS011;74399;43.260;27.812;2023-12-20T15:57:36;34.20;;;12.77;;
10114;SDS011;74399;43.260;27.812;2023-12-20T16:00:33;66.65;;;23.25;;
10114;SDS011;74399;43.260;27.812;2023-12-20T16:03:17;38.50;;;18.73;;
10114;SDS011;74399;43.260;27.812;2023-12-20T16:06:10;33.22;;;18.75;;
10114;SDS011;74399;43.260;27.812;2023-12-20T16:08:54;24.23;;;12.33;;
10114;SDS011;74399;43.260;27.812;2023-12-20T16:11:44;29.80;;;11.68;;
10114;SDS011;74399;43.260;27.812;2023-12-20T16:14:28;31.35;;;14.23;;
10114;SDS011;74399;43.260;27.812;2023-12-20T16:17:12;38.92;;;14.98;;
10114;SDS011;74399;43.260;27.812;2023-12-20T16:19:56;34.47;;;13.57;;
10114;SDS011;74399;43.260;27.812;2023-12-20T16:22:40;31.58;;;12.93;;
10114;SDS011;74399;43.260;27.812;2023-12-20T16:25:24;45.20;;;17.58;;
10114;SDS011;74399;43.260;27.812;2023-12-20T16:28:10;42.50;;;26.40;;
10114;SDS011;74399;43.260;27.812;2023-12-20T16:30:54;31.05;;;13.15;;
10114;SDS011;74399;43.260;27.812;2023-12-20T16:33:39;35.58;;;15.13;;
10114;SDS011;74399;43.260;27.812;2023-12-20T16:36:23;34.92;;;15.25;;
10114;SDS011;74399;43.260;27.812;2023-12-20T16:39:07;31.70;;;13.68;;